sensor_id;sensor_type;location;lat;lon;timestamp;P1;durP1;ratioP1;P2;durP2;ratioP2
14316;SDS011;7242;50.858;6.586;2023-01-16T00:00:12;2.70;;;1.13;;
14316;SDS011;7242;50.858;6.586;2023-01-16T00:03:13;1.67;;;0.87;;
14316;SDS011;7242;50.858;6.586;2023-01-16T00:06:14;2.77;;;1.30;;
14316;SDS011;7242;50.858;6.586;2023-01-16T00:09:15;3.30;;;1.07;;
14316;SDS011;7242;50.858;6.586;2023-01-16T00:12:16;2.17;;;0.80;;
14316;SDS011;7242;50.858;6.586;2023-01-16T00:15:16;2.57;;;1.00;;
14316;SDS011;7242;50.858;6.586;2023-01-16T00:18:17;3.47;;;1.00;;
14316;SDS011;7242;50.858;6.586;2023-01-16T00:21:19;3.03;;;1.47;;
14316;SDS011;7242;50.858;6.586;2023-01-16T00:24:20;4.57;;;1.10;;
14316;SDS011;7242;50.858;6.586;2023-01-16T00:27:21;3.70;;;1.30;;
14316;SDS011;7242;50.858;6.586;2023-01-16T00:30:22;3.03;;;1.10;;
14316;SDS011;7242;50.858;6.586;2023-01-16T00:33:24;1.93;;;0.80;;
14316;SDS011;7242;50.858;6.586;2023-01-16T00:36:25;3.40;;;1.00;;
14316;SDS011;7242;50.858;6.586;2023-01-16T00:39:26;3.20;;;1.07;;
14316;SDS011;7242;50.858;6.586;2023-01-16T00:42:26;2.57;;;0.80;;
14316;SDS011;7242;50.858;6.586;2023-01-16T00:45:27;2.80;;;0.90;;
14316;SDS011;7242;50.858;6.586;2023-01-16T00:48:29;2.30;;;0.80;;
14316;SDS011;7242;50.858;6.586;2023-01-16T00:51:30;2.70;;;0.90;;
14316;SDS011;7242;50.858;6.586;2023-01-16T00:54:31;2.70;;;0.80;;
14316;SDS011;7242;50.858;6.586;2023-01-16T00:57:32;2.03;;;0.90;;
14316;SDS011;7242;50.858;6.586;2023-01-16T01:00:33;1.53;;;1.00;;
14316;SDS011;7242;50.858;6.586;2023-01-16T01:03:33;1.93;;;0.80;;
14316;SDS011;7242;50.858;6.586;2023-01-16T01:06:35;4.50;;;0.90;;
14316;SDS011;7242;50.858;6.586;2023-01-16T01:09:35;3.23;;;0.90;;
14316;SDS011;7242;50.858;6.586;2023-01-16T01:12:36;2.37;;;1.00;;
14316;SDS011;7242;50.858;6.586;2023-01-16T01:15:37;2.77;;;1.03;;
14316;SDS011;7242;50.858;6.586;2023-01-16T01:18:38;4.00;;;1.20;;
14316;SDS011;7242;50.858;6.586;2023-01-16T01:21:38;3.53;;;1.13;;
14316;SDS011;7242;50.858;6.586;2023-01-16T01:24:39;1.47;;;0.70;;
14316;SDS011;7242;50.858;6.586;2023-01-16T01:27:40;2.67;;;0.87;;
14316;SDS011;7242;50.858;6.586;2023-01-16T01:30:40;2.30;;;0.90;;
14316;SDS011;7242;50.858;6.586;2023-01-16T01:33:42;1.07;;;0.83;;
14316;SDS011;7242;50.858;6.586;2023-01-16T01:36:42;2.47;;;0.90;;
14316;SDS011;7242;50.858;6.586;2023-01-16T01:39:43;0.80;;;0.73;;
14316;SDS011;7242;50.858;6.586;2023-01-16T01:42:44;2.00;;;0.70;;
14316;SDS011;7242;50.858;6.586;2023-01-16T01:45:52;0.90;;;0.70;;
14316;SDS011;7242;50.858;6.586;2023-01-16T01:48:56;1.80;;;0.70;;
14316;SDS011;7242;50.858;6.586;2023-01-16T01:52:01;0.73;;;0.60;;
14316;SDS011;7242;50.858;6.586;2023-01-16T01:55:05;1.77;;;0.70;;
14316;SDS011;7242;50.858;6.586;2023-01-16T01:58:09;1.60;;;0.50;;
14316;SDS011;7242;50.858;6.586;2023-01-16T02:01:15;0.80;;;0.50;;
14316;SDS011;7242;50.858;6.586;2023-01-16T02:04:17;1.60;;;0.60;;
14316;SDS011;7242;50.858;6.586;2023-01-16T02:07:24;0.77;;;0.50;;
14316;SDS011;7242;50.858;6.586;2023-01-16T02:13:38;0.90;;;0.50;;
14316;SDS011;7242;50.858;6.586;2023-01-16T02:16:39;0.43;;;0.40;;
14316;SDS011;7242;50.858;6.586;2023-01-16T02:20:15;0.40;;;0.40;;
14316;SDS011;7242;50.858;6.586;2023-01-16T02:23:27;0.33;;;0.33;;
14316;SDS011;7242;50.858;6.586;2023-01-16T02:33:33;0.30;;;0.30;;
14316;SDS011;7242;50.858;6.586;2023-01-16T02:36:49;1.27;;;0.30;;
14316;SDS011;7242;50.858;6.586;2023-01-16T02:40:05;0.47;;;0.40;;
14316;SDS011;7242;50.858;6.586;2023-01-16T02:46:20;1.00;;;0.60;;
14316;SDS011;7242;50.858;6.586;2023-01-16T02:49:30;1.37;;;0.43;;
14316;SDS011;7242;50.858;6.586;2023-01-16T02:52:44;0.67;;;0.30;;
14316;SDS011;7242;50.858;6.586;2023-01-16T02:56:12;1.10;;;0.50;;
14316;SDS011;7242;50.858;6.586;2023-01-16T02:59:19;0.43;;;0.30;;
14316;SDS011;7242;50.858;6.586;2023-01-16T03:02:21;0.30;;;0.30;;
14316;SDS011;7242;50.858;6.586;2023-01-16T03:05:21;1.40;;;0.43;;
14316;SDS011;7242;50.858;6.586;2023-01-16T03:08:26;0.53;;;0.50;;
14316;SDS011;7242;50.858;6.586;2023-01-16T03:11:30;0.97;;;0.50;;
14316;SDS011;7242;50.858;6.586;2023-01-16T03:14:42;1.30;;;0.50;;
14316;SDS011;7242;50.858;6.586;2023-01-16T03:17:56;0.50;;;0.37;;
14316;SDS011;7242;50.858;6.586;2023-01-16T03:21:13;0.53;;;0.43;;
14316;SDS011;7242;50.858;6.586;2023-01-16T03:24:49;2.00;;;0.50;;
14316;SDS011;7242;50.858;6.586;2023-01-16T03:28:13;1.20;;;0.50;;
14316;SDS011;7242;50.858;6.586;2023-01-16T03:37:57;0.37;;;0.37;;
14316;SDS011;7242;50.858;6.586;2023-01-16T03:41:06;1.50;;;0.60;;
14316;SDS011;7242;50.858;6.586;2023-01-16T03:44:12;0.50;;;0.50;;
14316;SDS011;7242;50.858;6.586;2023-01-16T03:47:19;1.10;;;0.50;;
14316;SDS011;7242;50.858;6.586;2023-01-16T03:50:34;0.60;;;0.50;;
14316;SDS011;7242;50.858;6.586;2023-01-16T03:53:38;1.07;;;0.60;;
14316;SDS011;7242;50.858;6.586;2023-01-16T03:56:58;1.40;;;0.80;;
14316;SDS011;7242;50.858;6.586;2023-01-16T04:00:13;0.97;;;0.63;;
14316;SDS011;7242;50.858;6.586;2023-01-16T04:03:16;2.20;;;0.80;;
14316;SDS011;7242;50.858;6.586;2023-01-16T04:06:26;1.37;;;0.70;;
14316;SDS011;7242;50.858;6.586;2023-01-16T04:09:45;2.90;;;0.80;;
14316;SDS011;7242;50.858;6.586;2023-01-16T04:12:56;1.20;;;0.70;;
14316;SDS011;7242;50.858;6.586;2023-01-16T04:16:00;2.37;;;0.77;;
14316;SDS011;7242;50.858;6.586;2023-01-16T04:19:06;3.63;;;0.80;;
14316;SDS011;7242;50.858;6.586;2023-01-16T04:22:18;2.50;;;1.00;;
14316;SDS011;7242;50.858;6.586;2023-01-16T04:25:27;2.50;;;0.80;;
14316;SDS011;7242;50.858;6.586;2023-01-16T04:28:28;2.07;;;0.80;;
14316;SDS011;7242;50.858;6.586;2023-01-16T04:31:29;2.63;;;0.90;;
14316;SDS011;7242;50.858;6.586;2023-01-16T04:34:30;2.27;;;0.97;;
14316;SDS011;7242;50.858;6.586;2023-01-16T04:37:30;2.30;;;1.00;;
14316;SDS011;7242;50.858;6.586;2023-01-16T04:40:31;3.03;;;1.00;;
14316;SDS011;7242;50.858;6.586;2023-01-16T04:43:32;4.43;;;1.20;;
14316;SDS011;7242;50.858;6.586;2023-01-16T04:46:33;2.93;;;0.93;;
14316;SDS011;7242;50.858;6.586;2023-01-16T04:49:34;3.33;;;1.17;;
14316;SDS011;7242;50.858;6.586;2023-01-16T04:52:35;1.93;;;0.70;;
14316;SDS011;7242;50.858;6.586;2023-01-16T04:55:36;4.10;;;1.03;;
14316;SDS011;7242;50.858;6.586;2023-01-16T04:58:36;2.90;;;1.10;;
14316;SDS011;7242;50.858;6.586;2023-01-16T05:01:37;4.17;;;1.20;;
14316;SDS011;7242;50.858;6.586;2023-01-16T05:04:38;3.57;;;1.10;;
14316;SDS011;7242;50.858;6.586;2023-01-16T05:07:39;2.73;;;1.00;;
14316;SDS011;7242;50.858;6.586;2023-01-16T05:10:40;1.87;;;0.93;;
14316;SDS011;7242;50.858;6.586;2023-01-16T05:13:41;3.03;;;1.00;;
14316;SDS011;7242;50.858;6.586;2023-01-16T05:16:41;1.77;;;1.13;;
14316;SDS011;7242;50.858;6.586;2023-01-16T05:19:42;2.93;;;1.00;;
14316;SDS011;7242;50.858;6.586;2023-01-16T05:22:43;1.30;;;0.63;;
14316;SDS011;7242;50.858;6.586;2023-01-16T05:25:44;3.03;;;0.60;;
14316;SDS011;7242;50.858;6.586;2023-01-16T05:28:45;1.33;;;0.67;;
14316;SDS011;7242;50.858;6.586;2023-01-16T05:31:46;1.20;;;0.50;;
14316;SDS011;7242;50.858;6.586;2023-01-16T05:34:47;1.80;;;0.70;;
14316;SDS011;7242;50.858;6.586;2023-01-16T05:37:48;0.97;;;0.50;;
14316;SDS011;7242;50.858;6.586;2023-01-16T05:40:48;1.20;;;0.50;;
14316;SDS011;7242;50.858;6.586;2023-01-16T05:43:49;0.60;;;0.50;;
14316;SDS011;7242;50.858;6.586;2023-01-16T05:46:50;1.03;;;0.50;;
14316;SDS011;7242;50.858;6.586;2023-01-16T05:49:51;0.97;;;0.50;;
14316;SDS011;7242;50.858;6.586;2023-01-16T05:52:52;2.40;;;0.73;;
14316;SDS011;7242;50.858;6.586;2023-01-16T05:55:53;1.47;;;0.60;;
14316;SDS011;7242;50.858;6.586;2023-01-16T05:58:54;0.87;;;0.40;;
14316;SDS011;7242;50.858;6.586;2023-01-16T06:01:57;0.87;;;0.60;;
14316;SDS011;7242;50.858;6.586;2023-01-16T06:04:58;1.97;;;0.70;;
14316;SDS011;7242;50.858;6.586;2023-01-16T06:07:59;3.63;;;0.70;;
14316;SDS011;7242;50.858;6.586;2023-01-16T06:11:00;0.83;;;0.60;;
14316;SDS011;7242;50.858;6.586;2023-01-16T06:14:01;1.37;;;0.70;;
14316;SDS011;7242;50.858;6.586;2023-01-16T06:17:04;2.03;;;0.90;;
14316;SDS011;7242;50.858;6.586;2023-01-16T06:20:05;3.00;;;1.00;;
14316;SDS011;7242;50.858;6.586;2023-01-16T06:23:06;2.20;;;0.77;;
14316;SDS011;7242;50.858;6.586;2023-01-16T06:26:08;1.20;;;0.70;;
14316;SDS011;7242;50.858;6.586;2023-01-16T06:29:09;3.57;;;0.87;;
14316;SDS011;7242;50.858;6.586;2023-01-16T06:32:10;1.87;;;0.70;;
14316;SDS011;7242;50.858;6.586;2023-01-16T06:35:11;2.87;;;0.80;;
14316;SDS011;7242;50.858;6.586;2023-01-16T06:38:12;5.50;;;1.10;;
14316;SDS011;7242;50.858;6.586;2023-01-16T06:41:13;2.50;;;0.77;;
14316;SDS011;7242;50.858;6.586;2023-01-16T06:44:14;3.83;;;0.87;;
14316;SDS011;7242;50.858;6.586;2023-01-16T06:47:15;5.10;;;1.10;;
14316;SDS011;7242;50.858;6.586;2023-01-16T06:50:16;1.70;;;0.90;;
14316;SDS011;7242;50.858;6.586;2023-01-16T06:53:17;1.77;;;0.90;;
14316;SDS011;7242;50.858;6.586;2023-01-16T06:56:18;3.77;;;1.00;;
14316;SDS011;7242;50.858;6.586;2023-01-16T06:59:19;2.80;;;1.20;;
14316;SDS011;7242;50.858;6.586;2023-01-16T07:02:19;4.27;;;1.00;;
14316;SDS011;7242;50.858;6.586;2023-01-16T07:05:21;2.10;;;1.10;;
14316;SDS011;7242;50.858;6.586;2023-01-16T07:08:22;3.13;;;1.33;;
14316;SDS011;7242;50.858;6.586;2023-01-16T07:11:23;1.87;;;1.00;;
14316;SDS011;7242;50.858;6.586;2023-01-16T07:14:24;2.27;;;1.00;;
14316;SDS011;7242;50.858;6.586;2023-01-16T07:17:44;3.57;;;1.23;;
14316;SDS011;7242;50.858;6.586;2023-01-16T07:21:04;3.33;;;1.27;;
14316;SDS011;7242;50.858;6.586;2023-01-16T07:24:29;3.00;;;1.07;;
14316;SDS011;7242;50.858;6.586;2023-01-16T07:27:33;2.90;;;1.27;;
14316;SDS011;7242;50.858;6.586;2023-01-16T07:30:34;2.87;;;1.30;;
14316;SDS011;7242;50.858;6.586;2023-01-16T07:33:35;3.80;;;1.37;;
14316;SDS011;7242;50.858;6.586;2023-01-16T07:36:36;4.13;;;1.40;;
14316;SDS011;7242;50.858;6.586;2023-01-16T07:39:37;3.43;;;1.30;;
14316;SDS011;7242;50.858;6.586;2023-01-16T07:42:38;4.27;;;1.43;;
14316;SDS011;7242;50.858;6.586;2023-01-16T07:45:39;3.00;;;1.27;;
14316;SDS011;7242;50.858;6.586;2023-01-16T07:48:39;2.73;;;1.30;;
14316;SDS011;7242;50.858;6.586;2023-01-16T07:51:40;2.50;;;1.37;;
14316;SDS011;7242;50.858;6.586;2023-01-16T07:54:41;2.30;;;1.27;;
14316;SDS011;7242;50.858;6.586;2023-01-16T07:57:42;3.50;;;1.40;;
14316;SDS011;7242;50.858;6.586;2023-01-16T08:00:43;3.03;;;1.10;;
14316;SDS011;7242;50.858;6.586;2023-01-16T08:03:44;2.33;;;1.13;;
14316;SDS011;7242;50.858;6.586;2023-01-16T08:06:45;2.83;;;0.90;;
14316;SDS011;7242;50.858;6.586;2023-01-16T08:09:46;3.03;;;0.93;;
14316;SDS011;7242;50.858;6.586;2023-01-16T08:12:46;2.47;;;0.93;;
14316;SDS011;7242;50.858;6.586;2023-01-16T08:15:47;3.03;;;0.90;;
14316;SDS011;7242;50.858;6.586;2023-01-16T08:18:48;2.80;;;0.80;;
14316;SDS011;7242;50.858;6.586;2023-01-16T08:21:49;3.27;;;1.00;;
14316;SDS011;7242;50.858;6.586;2023-01-16T08:24:49;3.27;;;1.00;;
14316;SDS011;7242;50.858;6.586;2023-01-16T08:27:50;2.23;;;0.87;;
14316;SDS011;7242;50.858;6.586;2023-01-16T08:30:51;2.27;;;1.00;;
14316;SDS011;7242;50.858;6.586;2023-01-16T08:33:52;1.20;;;0.80;;
14316;SDS011;7242;50.858;6.586;2023-01-16T08:36:53;3.07;;;0.83;;
14316;SDS011;7242;50.858;6.586;2023-01-16T08:39:53;1.90;;;0.83;;
14316;SDS011;7242;50.858;6.586;2023-01-16T08:42:54;1.50;;;0.80;;
14316;SDS011;7242;50.858;6.586;2023-01-16T08:46:20;1.13;;;0.80;;
14316;SDS011;7242;50.858;6.586;2023-01-16T08:49:40;1.97;;;0.83;;
14316;SDS011;7242;50.858;6.586;2023-01-16T08:53:00;2.53;;;0.80;;
14316;SDS011;7242;50.858;6.586;2023-01-16T08:56:01;2.37;;;0.63;;
14316;SDS011;7242;50.858;6.586;2023-01-16T08:59:03;0.60;;;0.60;;
14316;SDS011;7242;50.858;6.586;2023-01-16T09:02:03;0.43;;;0.43;;
14316;SDS011;7242;50.858;6.586;2023-01-16T09:05:05;0.77;;;0.67;;
14316;SDS011;7242;50.858;6.586;2023-01-16T09:08:07;0.80;;;0.60;;
14316;SDS011;7242;50.858;6.586;2023-01-16T09:11:07;1.03;;;0.60;;
14316;SDS011;7242;50.858;6.586;2023-01-16T09:14:28;0.63;;;0.47;;
14316;SDS011;7242;50.858;6.586;2023-01-16T09:17:29;0.70;;;0.50;;
14316;SDS011;7242;50.858;6.586;2023-01-16T09:20:30;1.57;;;0.70;;
14316;SDS011;7242;50.858;6.586;2023-01-16T09:23:31;0.40;;;0.40;;
14316;SDS011;7242;50.858;6.586;2023-01-16T09:26:32;0.90;;;0.53;;
14316;SDS011;7242;50.858;6.586;2023-01-16T09:29:33;0.60;;;0.60;;
14316;SDS011;7242;50.858;6.586;2023-01-16T09:32:34;0.93;;;0.40;;
14316;SDS011;7242;50.858;6.586;2023-01-16T09:35:35;1.93;;;0.30;;
14316;SDS011;7242;50.858;6.586;2023-01-16T09:38:36;1.37;;;0.50;;
14316;SDS011;7242;50.858;6.586;2023-01-16T09:41:40;0.63;;;0.30;;
14316;SDS011;7242;50.858;6.586;2023-01-16T09:45:14;0.47;;;0.47;;
14316;SDS011;7242;50.858;6.586;2023-01-16T09:51:51;0.40;;;0.40;;
14316;SDS011;7242;50.858;6.586;2023-01-16T09:55:26;0.70;;;0.40;;
14316;SDS011;7242;50.858;6.586;2023-01-16T09:58:48;0.47;;;0.30;;
14316;SDS011;7242;50.858;6.586;2023-01-16T10:05:17;0.30;;;0.30;;
14316;SDS011;7242;50.858;6.586;2023-01-16T10:08:20;0.30;;;0.30;;
14316;SDS011;7242;50.858;6.586;2023-01-16T10:11:48;0.37;;;0.30;;
14316;SDS011;7242;50.858;6.586;2023-01-16T10:15:14;0.40;;;0.30;;
14316;SDS011;7242;50.858;6.586;2023-01-16T10:24:44;0.40;;;0.30;;
14316;SDS011;7242;50.858;6.586;2023-01-16T10:31:08;0.47;;;0.40;;
14316;SDS011;7242;50.858;6.586;2023-01-16T10:34:14;0.30;;;0.30;;
14316;SDS011;7242;50.858;6.586;2023-01-16T10:37:16;0.50;;;0.50;;
14316;SDS011;7242;50.858;6.586;2023-01-16T10:40:24;1.43;;;0.30;;
14316;SDS011;7242;50.858;6.586;2023-01-16T10:43:32;0.80;;;0.50;;
14316;SDS011;7242;50.858;6.586;2023-01-16T10:46:53;1.80;;;0.40;;
14316;SDS011;7242;50.858;6.586;2023-01-16T10:50:14;0.33;;;0.33;;
14316;SDS011;7242;50.858;6.586;2023-01-16T10:53:16;0.60;;;0.60;;
14316;SDS011;7242;50.858;6.586;2023-01-16T10:56:16;0.70;;;0.40;;
14316;SDS011;7242;50.858;6.586;2023-01-16T10:59:17;0.40;;;0.40;;
14316;SDS011;7242;50.858;6.586;2023-01-16T11:02:29;1.00;;;0.57;;
14316;SDS011;7242;50.858;6.586;2023-01-16T11:05:33;0.80;;;0.57;;
14316;SDS011;7242;50.858;6.586;2023-01-16T11:08:34;0.67;;;0.57;;
14316;SDS011;7242;50.858;6.586;2023-01-16T11:11:38;0.47;;;0.47;;
14316;SDS011;7242;50.858;6.586;2023-01-16T11:14:57;1.83;;;0.80;;
14316;SDS011;7242;50.858;6.586;2023-01-16T11:18:18;0.67;;;0.53;;
14316;SDS011;7242;50.858;6.586;2023-01-16T11:21:29;0.40;;;0.40;;
14316;SDS011;7242;50.858;6.586;2023-01-16T11:24:32;1.57;;;0.70;;
14316;SDS011;7242;50.858;6.586;2023-01-16T11:27:35;1.73;;;0.60;;
14316;SDS011;7242;50.858;6.586;2023-01-16T11:30:38;0.80;;;0.70;;
14316;SDS011;7242;50.858;6.586;2023-01-16T11:33:42;1.70;;;0.90;;
14316;SDS011;7242;50.858;6.586;2023-01-16T11:36:47;0.63;;;0.43;;
14316;SDS011;7242;50.858;6.586;2023-01-16T11:39:50;1.70;;;0.50;;
14316;SDS011;7242;50.858;6.586;2023-01-16T11:49:46;2.50;;;0.50;;
14316;SDS011;7242;50.858;6.586;2023-01-16T11:52:47;0.40;;;0.30;;
14316;SDS011;7242;50.858;6.586;2023-01-16T12:09:57;0.50;;;0.40;;
14316;SDS011;7242;50.858;6.586;2023-01-16T12:13:07;0.67;;;0.60;;
14316;SDS011;7242;50.858;6.586;2023-01-16T12:16:34;1.70;;;0.50;;
14316;SDS011;7242;50.858;6.586;2023-01-16T12:23:13;0.30;;;0.30;;
14316;SDS011;7242;50.858;6.586;2023-01-16T12:26:23;1.17;;;0.50;;
14316;SDS011;7242;50.858;6.586;2023-01-16T12:32:56;0.40;;;0.40;;
14316;SDS011;7242;50.858;6.586;2023-01-16T12:39:22;0.50;;;0.40;;
14316;SDS011;7242;50.858;6.586;2023-01-16T12:45:59;0.90;;;0.53;;
14316;SDS011;7242;50.858;6.586;2023-01-16T12:49:04;0.50;;;0.30;;
14316;SDS011;7242;50.858;6.586;2023-01-16T12:58:36;0.50;;;0.50;;
14316;SDS011;7242;50.858;6.586;2023-01-16T13:01:39;0.50;;;0.50;;
14316;SDS011;7242;50.858;6.586;2023-01-16T13:04:48;1.07;;;0.70;;
14316;SDS011;7242;50.858;6.586;2023-01-16T13:08:01;0.50;;;0.50;;
14316;SDS011;7242;50.858;6.586;2023-01-16T13:11:29;0.70;;;0.70;;
14316;SDS011;7242;50.858;6.586;2023-01-16T13:14:54;0.47;;;0.40;;
14316;SDS011;7242;50.858;6.586;2023-01-16T13:18:03;0.30;;;0.30;;
14316;SDS011;7242;50.858;6.586;2023-01-16T13:21:07;0.50;;;0.50;;
14316;SDS011;7242;50.858;6.586;2023-01-16T13:24:14;0.50;;;0.50;;
14316;SDS011;7242;50.858;6.586;2023-01-16T13:27:31;1.30;;;0.50;;
14316;SDS011;7242;50.858;6.586;2023-01-16T13:30:34;1.10;;;0.57;;
14316;SDS011;7242;50.858;6.586;2023-01-16T13:33:35;0.50;;;0.50;;
14316;SDS011;7242;50.858;6.586;2023-01-16T13:36:58;0.30;;;0.30;;
14316;SDS011;7242;50.858;6.586;2023-01-16T13:40:06;1.37;;;0.50;;
14316;SDS011;7242;50.858;6.586;2023-01-16T13:43:16;1.53;;;0.90;;
14316;SDS011;7242;50.858;6.586;2023-01-16T13:46:37;1.13;;;0.33;;
14316;SDS011;7242;50.858;6.586;2023-01-16T13:49:38;0.50;;;0.50;;
14316;SDS011;7242;50.858;6.586;2023-01-16T13:52:41;0.50;;;0.50;;
14316;SDS011;7242;50.858;6.586;2023-01-16T13:55:43;0.60;;;0.60;;
14316;SDS011;7242;50.858;6.586;2023-01-16T13:58:47;0.60;;;0.50;;
14316;SDS011;7242;50.858;6.586;2023-01-16T14:05:42;1.10;;;0.53;;
14316;SDS011;7242;50.858;6.586;2023-01-16T14:12:17;0.83;;;0.80;;
14316;SDS011;7242;50.858;6.586;2023-01-16T14:15:21;1.10;;;1.00;;
14316;SDS011;7242;50.858;6.586;2023-01-16T14:21:44;0.50;;;0.50;;
14316;SDS011;7242;50.858;6.586;2023-01-16T14:25:13;0.50;;;0.50;;
14316;SDS011;7242;50.858;6.586;2023-01-16T14:28:21;0.60;;;0.60;;
14316;SDS011;7242;50.858;6.586;2023-01-16T14:31:26;0.50;;;0.50;;
14316;SDS011;7242;50.858;6.586;2023-01-16T14:38:09;0.97;;;0.60;;
14316;SDS011;7242;50.858;6.586;2023-01-16T14:41:24;0.60;;;0.50;;
14316;SDS011;7242;50.858;6.586;2023-01-16T14:48:39;1.23;;;0.70;;
14316;SDS011;7242;50.858;6.586;2023-01-16T14:51:59;0.77;;;0.77;;
14316;SDS011;7242;50.858;6.586;2023-01-16T14:55:20;0.60;;;0.60;;
14316;SDS011;7242;50.858;6.586;2023-01-16T15:01:47;0.53;;;0.50;;
14316;SDS011;7242;50.858;6.586;2023-01-16T15:05:11;0.50;;;0.50;;
14316;SDS011;7242;50.858;6.586;2023-01-16T15:08:15;0.73;;;0.70;;
14316;SDS011;7242;50.858;6.586;2023-01-16T15:11:37;2.60;;;1.60;;
14316;SDS011;7242;50.858;6.586;2023-01-16T15:14:53;0.70;;;0.70;;
14316;SDS011;7242;50.858;6.586;2023-01-16T15:17:55;1.20;;;1.10;;
14316;SDS011;7242;50.858;6.586;2023-01-16T15:21:17;0.80;;;0.80;;
14316;SDS011;7242;50.858;6.586;2023-01-16T15:24:38;2.00;;;0.80;;
14316;SDS011;7242;50.858;6.586;2023-01-16T15:27:42;0.70;;;0.70;;
14316;SDS011;7242;50.858;6.586;2023-01-16T15:30:51;0.60;;;0.60;;
14316;SDS011;7242;50.858;6.586;2023-01-16T15:33:58;0.70;;;0.70;;
14316;SDS011;7242;50.858;6.586;2023-01-16T15:37:14;0.60;;;0.60;;
14316;SDS011;7242;50.858;6.586;2023-01-16T15:40:28;1.20;;;0.90;;
14316;SDS011;7242;50.858;6.586;2023-01-16T15:43:31;1.57;;;0.60;;
14316;SDS011;7242;50.858;6.586;2023-01-16T15:46:58;0.80;;;0.70;;
14316;SDS011;7242;50.858;6.586;2023-01-16T15:53:19;1.93;;;0.90;;
14316;SDS011;7242;50.858;6.586;2023-01-16T15:59:31;0.93;;;0.90;;
14316;SDS011;7242;50.858;6.586;2023-01-16T16:02:40;1.70;;;0.90;;
14316;SDS011;7242;50.858;6.586;2023-01-16T16:05:44;2.13;;;1.00;;
14316;SDS011;7242;50.858;6.586;2023-01-16T16:08:49;2.37;;;1.80;;
14316;SDS011;7242;50.858;6.586;2023-01-16T16:11:51;1.67;;;1.57;;
14316;SDS011;7242;50.858;6.586;2023-01-16T16:15:16;1.57;;;1.23;;
14316;SDS011;7242;50.858;6.586;2023-01-16T16:18:34;1.10;;;0.83;;
14316;SDS011;7242;50.858;6.586;2023-01-16T16:21:44;1.40;;;1.07;;
14316;SDS011;7242;50.858;6.586;2023-01-16T16:25:22;1.10;;;1.00;;
14316;SDS011;7242;50.858;6.586;2023-01-16T16:31:42;0.70;;;0.70;;
14316;SDS011;7242;50.858;6.586;2023-01-16T16:34:52;0.70;;;0.60;;
14316;SDS011;7242;50.858;6.586;2023-01-16T16:37:56;0.70;;;0.70;;
14316;SDS011;7242;50.858;6.586;2023-01-16T16:44:09;1.13;;;0.40;;
14316;SDS011;7242;50.858;6.586;2023-01-16T16:47:25;0.60;;;0.60;;
14316;SDS011;7242;50.858;6.586;2023-01-16T16:50:32;0.40;;;0.40;;
14316;SDS011;7242;50.858;6.586;2023-01-16T16:53:34;1.47;;;0.70;;
14316;SDS011;7242;50.858;6.586;2023-01-16T16:56:36;1.30;;;1.20;;
14316;SDS011;7242;50.858;6.586;2023-01-16T16:59:40;2.57;;;2.33;;
14316;SDS011;7242;50.858;6.586;2023-01-16T17:02:46;6.23;;;4.10;;
14316;SDS011;7242;50.858;6.586;2023-01-16T17:05:49;2.50;;;2.20;;
14316;SDS011;7242;50.858;6.586;2023-01-16T17:08:52;2.70;;;2.10;;
14316;SDS011;7242;50.858;6.586;2023-01-16T17:11:54;3.87;;;3.20;;
14316;SDS011;7242;50.858;6.586;2023-01-16T17:14:56;7.53;;;4.83;;
14316;SDS011;7242;50.858;6.586;2023-01-16T17:17:58;1.73;;;1.40;;
14316;SDS011;7242;50.858;6.586;2023-01-16T17:21:00;1.97;;;1.70;;
14316;SDS011;7242;50.858;6.586;2023-01-16T17:24:03;1.60;;;1.50;;
14316;SDS011;7242;50.858;6.586;2023-01-16T17:27:05;4.97;;;4.07;;
14316;SDS011;7242;50.858;6.586;2023-01-16T17:30:11;3.60;;;3.20;;
14316;SDS011;7242;50.858;6.586;2023-01-16T17:33:15;5.83;;;5.27;;
14316;SDS011;7242;50.858;6.586;2023-01-16T17:36:22;4.50;;;4.10;;
14316;SDS011;7242;50.858;6.586;2023-01-16T17:39:25;5.87;;;5.27;;
14316;SDS011;7242;50.858;6.586;2023-01-16T17:42:29;10.03;;;9.00;;
14316;SDS011;7242;50.858;6.586;2023-01-16T17:45:52;4.90;;;4.40;;
14316;SDS011;7242;50.858;6.586;2023-01-16T17:48:59;28.57;;;18.83;;
14316;SDS011;7242;50.858;6.586;2023-01-16T17:52:00;19.50;;;12.43;;
14316;SDS011;7242;50.858;6.586;2023-01-16T17:55:02;5.97;;;4.53;;
14316;SDS011;7242;50.858;6.586;2023-01-16T17:58:36;2.40;;;2.00;;
14316;SDS011;7242;50.858;6.586;2023-01-16T18:01:47;2.17;;;1.97;;
14316;SDS011;7242;50.858;6.586;2023-01-16T18:04:49;2.30;;;2.10;;
14316;SDS011;7242;50.858;6.586;2023-01-16T18:07:51;3.70;;;3.40;;
14316;SDS011;7242;50.858;6.586;2023-01-16T18:10:55;3.57;;;3.27;;
14316;SDS011;7242;50.858;6.586;2023-01-16T18:13:57;2.90;;;2.70;;
14316;SDS011;7242;50.858;6.586;2023-01-16T18:17:34;3.13;;;2.93;;
14316;SDS011;7242;50.858;6.586;2023-01-16T18:20:39;1.90;;;1.67;;
14316;SDS011;7242;50.858;6.586;2023-01-16T18:23:41;0.90;;;0.70;;
14316;SDS011;7242;50.858;6.586;2023-01-16T18:26:44;1.00;;;1.00;;
14316;SDS011;7242;50.858;6.586;2023-01-16T18:29:46;1.10;;;1.00;;
14316;SDS011;7242;50.858;6.586;2023-01-16T18:32:49;1.10;;;0.90;;
14316;SDS011;7242;50.858;6.586;2023-01-16T18:35:50;1.60;;;1.33;;
14316;SDS011;7242;50.858;6.586;2023-01-16T18:39:00;5.00;;;4.20;;
14316;SDS011;7242;50.858;6.586;2023-01-16T18:42:20;4.97;;;4.33;;
14316;SDS011;7242;50.858;6.586;2023-01-16T18:45:41;11.07;;;8.13;;
14316;SDS011;7242;50.858;6.586;2023-01-16T18:49:01;3.07;;;2.77;;
14316;SDS011;7242;50.858;6.586;2023-01-16T18:52:21;7.03;;;5.20;;
14316;SDS011;7242;50.858;6.586;2023-01-16T18:55:45;8.33;;;6.80;;
14316;SDS011;7242;50.858;6.586;2023-01-16T18:59:09;5.43;;;4.93;;
14316;SDS011;7242;50.858;6.586;2023-01-16T19:05:44;2.70;;;2.50;;
14316;SDS011;7242;50.858;6.586;2023-01-16T19:08:46;2.80;;;2.60;;
14316;SDS011;7242;50.858;6.586;2023-01-16T19:11:50;1.27;;;1.17;;
14316;SDS011;7242;50.858;6.586;2023-01-16T19:14:52;1.20;;;1.10;;
14316;SDS011;7242;50.858;6.586;2023-01-16T19:17:54;2.50;;;1.60;;
14316;SDS011;7242;50.858;6.586;2023-01-16T19:20:56;1.87;;;1.77;;
14316;SDS011;7242;50.858;6.586;2023-01-16T19:23:57;2.10;;;1.90;;
14316;SDS011;7242;50.858;6.586;2023-01-16T19:26:58;1.93;;;1.83;;
14316;SDS011;7242;50.858;6.586;2023-01-16T19:29:59;2.60;;;2.17;;
14316;SDS011;7242;50.858;6.586;2023-01-16T19:33:00;2.40;;;2.30;;
14316;SDS011;7242;50.858;6.586;2023-01-16T19:36:01;3.10;;;2.80;;
14316;SDS011;7242;50.858;6.586;2023-01-16T19:39:03;3.10;;;2.90;;
14316;SDS011;7242;50.858;6.586;2023-01-16T19:42:04;3.00;;;2.80;;
14316;SDS011;7242;50.858;6.586;2023-01-16T19:45:23;3.10;;;2.90;;
14316;SDS011;7242;50.858;6.586;2023-01-16T19:48:42;2.30;;;2.20;;
14316;SDS011;7242;50.858;6.586;2023-01-16T19:51:43;2.47;;;2.33;;
14316;SDS011;7242;50.858;6.586;2023-01-16T19:54:44;2.80;;;2.60;;
14316;SDS011;7242;50.858;6.586;2023-01-16T19:57:45;3.30;;;3.10;;
14316;SDS011;7242;50.858;6.586;2023-01-16T20:00:46;3.03;;;2.83;;
14316;SDS011;7242;50.858;6.586;2023-01-16T20:03:48;3.30;;;3.00;;
14316;SDS011;7242;50.858;6.586;2023-01-16T20:06:50;3.20;;;3.00;;
14316;SDS011;7242;50.858;6.586;2023-01-16T20:09:51;3.30;;;3.00;;
14316;SDS011;7242;50.858;6.586;2023-01-16T20:12:52;3.53;;;3.00;;
14316;SDS011;7242;50.858;6.586;2023-01-16T20:15:53;3.50;;;3.30;;
14316;SDS011;7242;50.858;6.586;2023-01-16T20:18:54;4.00;;;3.23;;
14316;SDS011;7242;50.858;6.586;2023-01-16T20:21:55;3.10;;;2.80;;
14316;SDS011;7242;50.858;6.586;2023-01-16T20:24:56;3.07;;;2.87;;
14316;SDS011;7242;50.858;6.586;2023-01-16T20:27:57;2.53;;;2.33;;
14316;SDS011;7242;50.858;6.586;2023-01-16T20:30:57;2.20;;;2.10;;
14316;SDS011;7242;50.858;6.586;2023-01-16T20:34:02;2.23;;;2.03;;
14316;SDS011;7242;50.858;6.586;2023-01-16T20:37:03;1.80;;;1.70;;
14316;SDS011;7242;50.858;6.586;2023-01-16T20:40:05;1.87;;;1.53;;
14316;SDS011;7242;50.858;6.586;2023-01-16T20:43:07;2.00;;;1.30;;
14316;SDS011;7242;50.858;6.586;2023-01-16T20:46:27;2.60;;;1.40;;
14316;SDS011;7242;50.858;6.586;2023-01-16T20:49:28;1.50;;;1.30;;
14316;SDS011;7242;50.858;6.586;2023-01-16T20:52:29;3.73;;;1.40;;